sensor_id;sensor_type;location;lat;lon;timestamp;P1;durP1;ratioP1;P2;durP2;ratioP2
9208;SDS011;4639;48.862;9.188;2024-03-02T00:00:22;279.63;;;260.80;;
9208;SDS011;4639;48.862;9.188;2024-03-02T00:02:50;257.67;;;240.10;;
9208;SDS011;4639;48.862;9.188;2024-03-02T00:05:19;254.63;;;237.65;;
9208;SDS011;4639;48.862;9.188;2024-03-02T00:07:52;289.85;;;269.85;;
9208;SDS011;4639;48.862;9.188;2024-03-02T00:10:22;304.10;;;282.52;;
9208;SDS011;4639;48.862;9.188;2024-03-02T00:12:54;320.98;;;298.80;;
9208;SDS011;4639;48.862;9.188;2024-03-02T00:18:14;261.25;;;244.25;;
9208;SDS011;4639;48.862;9.188;2024-03-02T00:20:43;259.45;;;242.40;;
9208;SDS011;4639;48.862;9.188;2024-03-02T00:23:09;248.75;;;232.30;;
9208;SDS011;4639;48.862;9.188;2024-03-02T00:25:41;239.27;;;223.52;;
9208;SDS011;4639;48.862;9.188;2024-03-02T00:28:27;271.70;;;253.80;;
9208;SDS011;4639;48.862;9.188;2024-03-02T00:31:04;262.35;;;244.55;;
9208;SDS011;4639;48.862;9.188;2024-03-02T00:33:31;276.65;;;258.05;;
9208;SDS011;4639;48.862;9.188;2024-03-02T00:35:58;275.40;;;256.63;;
9208;SDS011;4639;48.862;9.188;2024-03-02T00:38:25;265.38;;;247.38;;
9208;SDS011;4639;48.862;9.188;2024-03-02T00:40:51;287.17;;;266.98;;
9208;SDS011;4639;48.862;9.188;2024-03-02T00:46:20;273.92;;;254.80;;
9208;SDS011;4639;48.862;9.188;2024-03-02T00:48:56;274.30;;;255.10;;
9208;SDS011;4639;48.862;9.188;2024-03-02T00:51:24;287.95;;;267.83;;
9208;SDS011;4639;48.862;9.188;2024-03-02T00:53:54;275.52;;;255.80;;
9208;SDS011;4639;48.862;9.188;2024-03-02T00:56:21;289.17;;;269.13;;
9208;SDS011;4639;48.862;9.188;2024-03-02T00:58:50;285.45;;;265.42;;
9208;SDS011;4639;48.862;9.188;2024-03-02T01:01:17;296.58;;;276.02;;
9208;SDS011;4639;48.862;9.188;2024-03-02T01:03:43;293.88;;;272.65;;
9208;SDS011;4639;48.862;9.188;2024-03-02T01:06:09;282.30;;;262.73;;
9208;SDS011;4639;48.862;9.188;2024-03-02T01:08:35;278.45;;;259.10;;
9208;SDS011;4639;48.862;9.188;2024-03-02T01:11:01;297.05;;;276.33;;
9208;SDS011;4639;48.862;9.188;2024-03-02T01:13:27;301.13;;;280.33;;
9208;SDS011;4639;48.862;9.188;2024-03-02T01:15:52;288.25;;;268.65;;
9208;SDS011;4639;48.862;9.188;2024-03-02T01:18:18;265.30;;;247.75;;
9208;SDS011;4639;48.862;9.188;2024-03-02T01:20:44;242.75;;;226.55;;
9208;SDS011;4639;48.862;9.188;2024-03-02T01:23:10;235.35;;;219.75;;
9208;SDS011;4639;48.862;9.188;2024-03-02T01:25:36;252.18;;;235.43;;
9208;SDS011;4639;48.862;9.188;2024-03-02T01:28:01;258.42;;;241.23;;
9208;SDS011;4639;48.862;9.188;2024-03-02T01:30:27;268.10;;;250.50;;
9208;SDS011;4639;48.862;9.188;2024-03-02T01:32:53;263.50;;;245.63;;
9208;SDS011;4639;48.862;9.188;2024-03-02T01:35:18;244.10;;;227.98;;
9208;SDS011;4639;48.862;9.188;2024-03-02T01:37:44;287.73;;;268.23;;
9208;SDS011;4639;48.862;9.188;2024-03-02T01:40:10;245.15;;;228.48;;
9208;SDS011;4639;48.862;9.188;2024-03-02T01:42:36;222.50;;;208.00;;
9208;SDS011;4639;48.862;9.188;2024-03-02T01:45:06;262.60;;;244.65;;
9208;SDS011;4639;48.862;9.188;2024-03-02T01:47:33;253.20;;;235.90;;
9208;SDS011;4639;48.862;9.188;2024-03-02T01:49:59;271.98;;;253.18;;
9208;SDS011;4639;48.862;9.188;2024-03-02T01:52:25;280.38;;;260.83;;
9208;SDS011;4639;48.862;9.188;2024-03-02T01:54:52;292.42;;;271.73;;
9208;SDS011;4639;48.862;9.188;2024-03-02T01:57:18;293.23;;;272.42;;
9208;SDS011;4639;48.862;9.188;2024-03-02T01:59:44;290.80;;;270.33;;
9208;SDS011;4639;48.862;9.188;2024-03-02T02:02:12;303.23;;;281.48;;
9208;SDS011;4639;48.862;9.188;2024-03-02T02:04:38;292.40;;;271.13;;
9208;SDS011;4639;48.862;9.188;2024-03-02T02:07:04;295.90;;;274.85;;
9208;SDS011;4639;48.862;9.188;2024-03-02T02:09:29;291.15;;;270.48;;
9208;SDS011;4639;48.862;9.188;2024-03-02T02:11:58;297.35;;;276.05;;
9208;SDS011;4639;48.862;9.188;2024-03-02T02:14:24;305.20;;;283.20;;
9208;SDS011;4639;48.862;9.188;2024-03-02T02:16:50;311.13;;;288.90;;
9208;SDS011;4639;48.862;9.188;2024-03-02T02:19:15;297.73;;;276.73;;
9208;SDS011;4639;48.862;9.188;2024-03-02T02:21:42;292.33;;;271.20;;
9208;SDS011;4639;48.862;9.188;2024-03-02T02:24:08;317.33;;;294.77;;
9208;SDS011;4639;48.862;9.188;2024-03-02T02:26:33;290.80;;;270.65;;
9208;SDS011;4639;48.862;9.188;2024-03-02T02:28:59;296.00;;;275.23;;
9208;SDS011;4639;48.862;9.188;2024-03-02T02:31:25;292.88;;;272.63;;
9208;SDS011;4639;48.862;9.188;2024-03-02T02:33:50;280.80;;;261.17;;
9208;SDS011;4639;48.862;9.188;2024-03-02T02:36:16;291.35;;;270.65;;
9208;SDS011;4639;48.862;9.188;2024-03-02T02:38:43;283.05;;;262.95;;
9208;SDS011;4639;48.862;9.188;2024-03-02T02:41:11;298.98;;;277.35;;
9208;SDS011;4639;48.862;9.188;2024-03-02T02:43:37;290.92;;;270.02;;
9208;SDS011;4639;48.862;9.188;2024-03-02T02:46:04;282.13;;;262.48;;
9208;SDS011;4639;48.862;9.188;2024-03-02T02:48:30;335.13;;;311.38;;
9208;SDS011;4639;48.862;9.188;2024-03-02T02:50:56;303.17;;;282.00;;
9208;SDS011;4639;48.862;9.188;2024-03-02T02:53:21;300.98;;;280.23;;
9208;SDS011;4639;48.862;9.188;2024-03-02T02:55:47;294.30;;;274.05;;
9208;SDS011;4639;48.862;9.188;2024-03-02T02:58:24;277.63;;;258.92;;
9208;SDS011;4639;48.862;9.188;2024-03-02T03:00:50;269.67;;;251.55;;
9208;SDS011;4639;48.862;9.188;2024-03-02T03:03:16;259.15;;;242.00;;
9208;SDS011;4639;48.862;9.188;2024-03-02T03:05:41;253.65;;;236.30;;
9208;SDS011;4639;48.862;9.188;2024-03-02T03:08:07;267.00;;;249.25;;
9208;SDS011;4639;48.862;9.188;2024-03-02T03:10:32;263.60;;;245.63;;
9208;SDS011;4639;48.862;9.188;2024-03-02T03:12:58;281.20;;;262.58;;
9208;SDS011;4639;48.862;9.188;2024-03-02T03:15:23;271.90;;;253.52;;
9208;SDS011;4639;48.862;9.188;2024-03-02T03:17:49;263.38;;;245.73;;
9208;SDS011;4639;48.862;9.188;2024-03-02T03:20:15;250.50;;;233.70;;
9208;SDS011;4639;48.862;9.188;2024-03-02T03:22:42;269.15;;;250.93;;
9208;SDS011;4639;48.862;9.188;2024-03-02T03:25:08;261.30;;;243.02;;
9208;SDS011;4639;48.862;9.188;2024-03-02T03:27:33;273.90;;;255.15;;
9208;SDS011;4639;48.862;9.188;2024-03-02T03:29:59;296.85;;;275.90;;
9208;SDS011;4639;48.862;9.188;2024-03-02T03:32:24;282.13;;;262.17;;
9208;SDS011;4639;48.862;9.188;2024-03-02T03:34:50;299.27;;;278.42;;
9208;SDS011;4639;48.862;9.188;2024-03-02T03:37:15;288.10;;;268.20;;
9208;SDS011;4639;48.862;9.188;2024-03-02T03:39:41;288.00;;;268.55;;
9208;SDS011;4639;48.862;9.188;2024-03-02T03:42:07;280.73;;;261.58;;
9208;SDS011;4639;48.862;9.188;2024-03-02T03:44:32;277.52;;;258.65;;
9208;SDS011;4639;48.862;9.188;2024-03-02T03:46:58;270.75;;;252.30;;
9208;SDS011;4639;48.862;9.188;2024-03-02T03:49:25;288.60;;;269.13;;
9208;SDS011;4639;48.862;9.188;2024-03-02T03:51:51;280.13;;;261.17;;
9208;SDS011;4639;48.862;9.188;2024-03-02T03:54:17;292.80;;;272.95;;
9208;SDS011;4639;48.862;9.188;2024-03-02T03:56:42;271.83;;;253.48;;
9208;SDS011;4639;48.862;9.188;2024-03-02T03:59:08;265.83;;;247.60;;
9208;SDS011;4639;48.862;9.188;2024-03-02T04:01:33;296.63;;;276.63;;
9208;SDS011;4639;48.862;9.188;2024-03-02T04:03:59;297.13;;;276.73;;
9208;SDS011;4639;48.862;9.188;2024-03-02T04:06:26;300.30;;;279.25;;
9208;SDS011;4639;48.862;9.188;2024-03-02T04:08:52;288.40;;;268.58;;
9208;SDS011;4639;48.862;9.188;2024-03-02T04:11:18;292.73;;;272.48;;
9208;SDS011;4639;48.862;9.188;2024-03-02T04:13:43;290.90;;;270.13;;
9208;SDS011;4639;48.862;9.188;2024-03-02T04:16:09;294.88;;;274.35;;
9208;SDS011;4639;48.862;9.188;2024-03-02T04:18:34;279.05;;;259.05;;
9208;SDS011;4639;48.862;9.188;2024-03-02T04:21:00;267.58;;;248.65;;
9208;SDS011;4639;48.862;9.188;2024-03-02T04:23:26;262.88;;;244.38;;
9208;SDS011;4639;48.862;9.188;2024-03-02T04:25:51;277.55;;;257.85;;
9208;SDS011;4639;48.862;9.188;2024-03-02T04:28:17;287.95;;;267.40;;
9208;SDS011;4639;48.862;9.188;2024-03-02T04:30:43;288.20;;;268.25;;
9208;SDS011;4639;48.862;9.188;2024-03-02T04:33:08;270.17;;;251.38;;
9208;SDS011;4639;48.862;9.188;2024-03-02T04:35:35;265.95;;;247.55;;
9208;SDS011;4639;48.862;9.188;2024-03-02T04:38:01;277.05;;;257.50;;
9208;SDS011;4639;48.862;9.188;2024-03-02T04:40:27;275.08;;;256.02;;
9208;SDS011;4639;48.862;9.188;2024-03-02T04:42:52;279.48;;;260.52;;
9208;SDS011;4639;48.862;9.188;2024-03-02T04:45:18;313.50;;;290.52;;
9208;SDS011;4639;48.862;9.188;2024-03-02T04:47:43;300.25;;;279.08;;
9208;SDS011;4639;48.862;9.188;2024-03-02T04:50:09;285.65;;;265.40;;
9208;SDS011;4639;48.862;9.188;2024-03-02T04:52:35;277.08;;;257.52;;
9208;SDS011;4639;48.862;9.188;2024-03-02T04:55:01;268.65;;;249.50;;
9208;SDS011;4639;48.862;9.188;2024-03-02T04:58:00;284.67;;;264.75;;
9208;SDS011;4639;48.862;9.188;2024-03-02T05:00:25;273.38;;;253.95;;
9208;SDS011;4639;48.862;9.188;2024-03-02T05:02:51;280.25;;;260.50;;
9208;SDS011;4639;48.862;9.188;2024-03-02T05:05:17;254.30;;;235.98;;
9208;SDS011;4639;48.862;9.188;2024-03-02T05:07:42;253.73;;;235.73;;
9208;SDS011;4639;48.862;9.188;2024-03-02T05:10:09;269.88;;;250.85;;
9208;SDS011;4639;48.862;9.188;2024-03-02T05:12:34;255.98;;;237.40;;
9208;SDS011;4639;48.862;9.188;2024-03-02T05:15:09;244.52;;;226.80;;
9208;SDS011;4639;48.862;9.188;2024-03-02T05:17:36;289.10;;;268.55;;
9208;SDS011;4639;48.862;9.188;2024-03-02T05:20:03;265.33;;;246.38;;
9208;SDS011;4639;48.862;9.188;2024-03-02T05:22:29;312.67;;;290.02;;
9208;SDS011;4639;48.862;9.188;2024-03-02T05:24:54;304.75;;;283.00;;
9208;SDS011;4639;48.862;9.188;2024-03-02T05:27:20;274.83;;;255.25;;
9208;SDS011;4639;48.862;9.188;2024-03-02T05:29:46;278.48;;;259.00;;
9208;SDS011;4639;48.862;9.188;2024-03-02T05:32:12;270.17;;;250.85;;
9208;SDS011;4639;48.862;9.188;2024-03-02T05:34:37;238.85;;;221.52;;
9208;SDS011;4639;48.862;9.188;2024-03-02T05:37:03;278.80;;;259.05;;
9208;SDS011;4639;48.862;9.188;2024-03-02T05:39:28;272.30;;;252.93;;
9208;SDS011;4639;48.862;9.188;2024-03-02T05:41:54;263.80;;;244.93;;
9208;SDS011;4639;48.862;9.188;2024-03-02T05:44:19;259.73;;;241.00;;
9208;SDS011;4639;48.862;9.188;2024-03-02T05:46:45;269.95;;;250.27;;
9208;SDS011;4639;48.862;9.188;2024-03-02T05:49:11;261.38;;;242.50;;
9208;SDS011;4639;48.862;9.188;2024-03-02T05:51:37;267.48;;;248.18;;
9208;SDS011;4639;48.862;9.188;2024-03-02T05:54:02;272.05;;;252.65;;
9208;SDS011;4639;48.862;9.188;2024-03-02T05:56:28;282.65;;;261.98;;
9208;SDS011;4639;48.862;9.188;2024-03-02T05:58:53;253.88;;;235.48;;
9208;SDS011;4639;48.862;9.188;2024-03-02T06:01:44;251.57;;;233.52;;
9208;SDS011;4639;48.862;9.188;2024-03-02T06:04:17;257.98;;;239.43;;
9208;SDS011;4639;48.862;9.188;2024-03-02T06:06:42;291.17;;;270.50;;
9208;SDS011;4639;48.862;9.188;2024-03-02T06:09:08;288.63;;;268.45;;
9208;SDS011;4639;48.862;9.188;2024-03-02T06:11:37;278.02;;;258.27;;
9208;SDS011;4639;48.862;9.188;2024-03-02T06:14:04;269.30;;;249.73;;
9208;SDS011;4639;48.862;9.188;2024-03-02T06:16:33;267.25;;;247.93;;
9208;SDS011;4639;48.862;9.188;2024-03-02T06:18:59;257.15;;;238.50;;
9208;SDS011;4639;48.862;9.188;2024-03-02T06:21:25;262.85;;;243.98;;
9208;SDS011;4639;48.862;9.188;2024-03-02T06:23:52;268.15;;;248.75;;
9208;SDS011;4639;48.862;9.188;2024-03-02T06:26:18;266.05;;;246.88;;
9208;SDS011;4639;48.862;9.188;2024-03-02T06:28:43;291.23;;;270.63;;
9208;SDS011;4639;48.862;9.188;2024-03-02T06:31:09;313.80;;;291.75;;
9208;SDS011;4639;48.862;9.188;2024-03-02T06:33:35;307.83;;;286.17;;
9208;SDS011;4639;48.862;9.188;2024-03-02T06:36:01;302.48;;;281.23;;
9208;SDS011;4639;48.862;9.188;2024-03-02T06:38:27;300.95;;;279.63;;
9208;SDS011;4639;48.862;9.188;2024-03-02T06:40:52;288.05;;;267.60;;
9208;SDS011;4639;48.862;9.188;2024-03-02T06:43:18;309.95;;;288.65;;
9208;SDS011;4639;48.862;9.188;2024-03-02T06:45:48;298.17;;;277.55;;
9208;SDS011;4639;48.862;9.188;2024-03-02T06:48:14;359.02;;;333.00;;
9208;SDS011;4639;48.862;9.188;2024-03-02T06:50:43;322.88;;;300.33;;
9208;SDS011;4639;48.862;9.188;2024-03-02T06:53:09;362.08;;;336.08;;
9208;SDS011;4639;48.862;9.188;2024-03-02T06:55:34;283.17;;;263.17;;
9208;SDS011;4639;48.862;9.188;2024-03-02T06:58:00;321.65;;;298.35;;
9208;SDS011;4639;48.862;9.188;2024-03-02T07:00:25;297.63;;;277.05;;
9208;SDS011;4639;48.862;9.188;2024-03-02T07:02:51;307.85;;;286.45;;
9208;SDS011;4639;48.862;9.188;2024-03-02T07:05:17;312.55;;;290.42;;
9208;SDS011;4639;48.862;9.188;2024-03-02T07:07:44;318.88;;;295.67;;
9208;SDS011;4639;48.862;9.188;2024-03-02T07:10:09;292.60;;;272.23;;
9208;SDS011;4639;48.862;9.188;2024-03-02T07:12:35;298.23;;;277.02;;
9208;SDS011;4639;48.862;9.188;2024-03-02T07:15:01;311.02;;;288.60;;
9208;SDS011;4639;48.862;9.188;2024-03-02T07:17:27;417.15;;;384.55;;
9208;SDS011;4639;48.862;9.188;2024-03-02T07:19:53;335.45;;;310.98;;
9208;SDS011;4639;48.862;9.188;2024-03-02T07:22:18;358.45;;;331.48;;
9208;SDS011;4639;48.862;9.188;2024-03-02T07:24:44;427.35;;;393.38;;
9208;SDS011;4639;48.862;9.188;2024-03-02T07:27:13;316.67;;;294.45;;
9208;SDS011;4639;48.862;9.188;2024-03-02T07:29:39;341.25;;;316.10;;
9208;SDS011;4639;48.862;9.188;2024-03-02T07:32:05;287.52;;;267.35;;
9208;SDS011;4639;48.862;9.188;2024-03-02T07:34:31;317.40;;;294.75;;
9208;SDS011;4639;48.862;9.188;2024-03-02T07:36:57;302.50;;;281.70;;
9208;SDS011;4639;48.862;9.188;2024-03-02T07:39:23;319.30;;;296.02;;
9208;SDS011;4639;48.862;9.188;2024-03-02T07:41:49;290.60;;;270.55;;
9208;SDS011;4639;48.862;9.188;2024-03-02T07:44:14;258.33;;;241.27;;
9208;SDS011;4639;48.862;9.188;2024-03-02T07:46:41;260.02;;;242.95;;
9208;SDS011;4639;48.862;9.188;2024-03-02T07:49:07;315.13;;;293.50;;
9208;SDS011;4639;48.862;9.188;2024-03-02T07:51:33;304.80;;;283.80;;
9208;SDS011;4639;48.862;9.188;2024-03-02T07:53:59;302.35;;;280.85;;
9208;SDS011;4639;48.862;9.188;2024-03-02T07:56:25;249.15;;;232.52;;
9208;SDS011;4639;48.862;9.188;2024-03-02T07:58:50;221.52;;;207.15;;
9208;SDS011;4639;48.862;9.188;2024-03-02T08:01:16;292.05;;;272.05;;
9208;SDS011;4639;48.862;9.188;2024-03-02T08:03:42;213.38;;;199.48;;
9208;SDS011;4639;48.862;9.188;2024-03-02T08:06:13;275.52;;;256.77;;
9208;SDS011;4639;48.862;9.188;2024-03-02T08:08:40;202.88;;;189.82;;
9208;SDS011;4639;48.862;9.188;2024-03-02T08:11:05;242.00;;;226.13;;
9208;SDS011;4639;48.862;9.188;2024-03-02T08:13:31;261.77;;;244.40;;
9208;SDS011;4639;48.862;9.188;2024-03-02T08:15:57;221.40;;;207.40;;
9208;SDS011;4639;48.862;9.188;2024-03-02T08:18:22;248.60;;;232.82;;
9208;SDS011;4639;48.862;9.188;2024-03-02T08:20:48;233.30;;;218.73;;
9208;SDS011;4639;48.862;9.188;2024-03-02T08:23:14;242.65;;;227.70;;
9208;SDS011;4639;48.862;9.188;2024-03-02T08:25:39;240.65;;;225.55;;
9208;SDS011;4639;48.862;9.188;2024-03-02T08:28:05;208.38;;;194.80;;
9208;SDS011;4639;48.862;9.188;2024-03-02T08:30:34;201.02;;;187.85;;
9208;SDS011;4639;48.862;9.188;2024-03-02T08:32:59;215.63;;;201.63;;
9208;SDS011;4639;48.862;9.188;2024-03-02T08:35:25;210.00;;;195.73;;
9208;SDS011;4639;48.862;9.188;2024-03-02T08:37:51;262.73;;;244.50;;
9208;SDS011;4639;48.862;9.188;2024-03-02T08:40:16;224.68;;;209.20;;
9208;SDS011;4639;48.862;9.188;2024-03-02T08:42:42;333.55;;;309.27;;
9208;SDS011;4639;48.862;9.188;2024-03-02T08:45:08;280.73;;;261.23;;
9208;SDS011;4639;48.862;9.188;2024-03-02T08:47:34;298.20;;;278.42;;
9208;SDS011;4639;48.862;9.188;2024-03-02T08:50:00;333.15;;;311.30;;
9208;SDS011;4639;48.862;9.188;2024-03-02T08:52:26;295.10;;;276.00;;
9208;SDS011;4639;48.862;9.188;2024-03-02T08:54:52;220.98;;;206.82;;
9208;SDS011;4639;48.862;9.188;2024-03-02T08:57:17;396.42;;;364.67;;
9208;SDS011;4639;48.862;9.188;2024-03-02T08:59:43;189.50;;;176.57;;
9208;SDS011;4639;48.862;9.188;2024-03-02T09:02:09;225.23;;;210.20;;
9208;SDS011;4639;48.862;9.188;2024-03-02T09:04:35;363.65;;;334.77;;
9208;SDS011;4639;48.862;9.188;2024-03-02T09:07:00;241.75;;;224.48;;
9208;SDS011;4639;48.862;9.188;2024-03-02T09:09:26;256.23;;;238.05;;
9208;SDS011;4639;48.862;9.188;2024-03-02T09:11:52;240.18;;;223.95;;
9208;SDS011;4639;48.862;9.188;2024-03-02T09:14:19;318.67;;;293.83;;
9208;SDS011;4639;48.862;9.188;2024-03-02T09:16:45;292.02;;;270.13;;
9208;SDS011;4639;48.862;9.188;2024-03-02T09:19:11;278.20;;;257.58;;
9208;SDS011;4639;48.862;9.188;2024-03-02T09:21:37;273.17;;;253.63;;
9208;SDS011;4639;48.862;9.188;2024-03-02T09:24:02;210.75;;;197.07;;
9208;SDS011;4639;48.862;9.188;2024-03-02T09:26:28;196.70;;;183.73;;
9208;SDS011;4639;48.862;9.188;2024-03-02T09:28:54;296.13;;;275.90;;
9208;SDS011;4639;48.862;9.188;2024-03-02T09:31:20;245.57;;;229.02;;
9208;SDS011;4639;48.862;9.188;2024-03-02T09:33:45;227.07;;;212.35;;
9208;SDS011;4639;48.862;9.188;2024-03-02T09:36:18;218.63;;;204.52;;
9208;SDS011;4639;48.862;9.188;2024-03-02T09:38:44;277.52;;;257.65;;
9208;SDS011;4639;48.862;9.188;2024-03-02T09:41:10;188.13;;;175.68;;
9208;SDS011;4639;48.862;9.188;2024-03-02T09:43:35;271.73;;;253.45;;
9208;SDS011;4639;48.862;9.188;2024-03-02T09:46:01;309.98;;;289.40;;
9208;SDS011;4639;48.862;9.188;2024-03-02T09:48:27;352.25;;;328.58;;
9208;SDS011;4639;48.862;9.188;2024-03-02T09:50:52;285.92;;;265.98;;
9208;SDS011;4639;48.862;9.188;2024-03-02T09:53:18;340.23;;;316.42;;
9208;SDS011;4639;48.862;9.188;2024-03-02T09:55:46;289.05;;;268.05;;
9208;SDS011;4639;48.862;9.188;2024-03-02T09:58:12;293.63;;;273.40;;
9208;SDS011;4639;48.862;9.188;2024-03-02T10:00:38;254.75;;;235.40;;
9208;SDS011;4639;48.862;9.188;2024-03-02T10:03:03;229.73;;;214.05;;
9208;SDS011;4639;48.862;9.188;2024-03-02T10:05:30;285.30;;;265.20;;
9208;SDS011;4639;48.862;9.188;2024-03-02T10:07:59;268.35;;;250.35;;
9208;SDS011;4639;48.862;9.188;2024-03-02T10:10:33;270.65;;;253.15;;
9208;SDS011;4639;48.862;9.188;2024-03-02T10:13:12;306.52;;;286.40;;
9208;SDS011;4639;48.862;9.188;2024-03-02T10:15:39;341.52;;;318.08;;
9208;SDS011;4639;48.862;9.188;2024-03-02T10:18:08;242.02;;;226.35;;
9208;SDS011;4639;48.862;9.188;2024-03-02T10:20:37;253.48;;;236.52;;
9208;SDS011;4639;48.862;9.188;2024-03-02T10:23:13;229.48;;;214.55;;
9208;SDS011;4639;48.862;9.188;2024-03-02T10:25:41;196.60;;;184.38;;
9208;SDS011;4639;48.862;9.188;2024-03-02T10:28:07;194.55;;;182.00;;
9208;SDS011;4639;48.862;9.188;2024-03-02T10:30:33;192.63;;;180.00;;
9208;SDS011;4639;48.862;9.188;2024-03-02T10:33:00;209.75;;;195.02;;
9208;SDS011;4639;48.862;9.188;2024-03-02T10:35:27;204.20;;;191.25;;
9208;SDS011;4639;48.862;9.188;2024-03-02T10:37:53;250.50;;;232.77;;
9208;SDS011;4639;48.862;9.188;2024-03-02T10:40:21;213.25;;;200.13;;
9208;SDS011;4639;48.862;9.188;2024-03-02T10:42:48;220.60;;;206.32;;
9208;SDS011;4639;48.862;9.188;2024-03-02T10:45:16;226.10;;;211.77;;
9208;SDS011;4639;48.862;9.188;2024-03-02T10:47:44;212.30;;;199.23;;
9208;SDS011;4639;48.862;9.188;2024-03-02T10:50:12;237.38;;;221.90;;
9208;SDS011;4639;48.862;9.188;2024-03-02T10:52:37;239.90;;;224.77;;
9208;SDS011;4639;48.862;9.188;2024-03-02T10:55:07;268.15;;;250.63;;
9208;SDS011;4639;48.862;9.188;2024-03-02T10:57:53;204.30;;;191.73;;
9208;SDS011;4639;48.862;9.188;2024-03-02T11:00:21;205.98;;;193.00;;
9208;SDS011;4639;48.862;9.188;2024-03-02T11:02:54;168.70;;;158.20;;
9208;SDS011;4639;48.862;9.188;2024-03-02T11:05:28;215.65;;;201.93;;
9208;SDS011;4639;48.862;9.188;2024-03-02T11:08:01;247.75;;;231.57;;
9208;SDS011;4639;48.862;9.188;2024-03-02T11:10:34;221.73;;;208.27;;
9208;SDS011;4639;48.862;9.188;2024-03-02T11:13:05;186.82;;;175.57;;
9208;SDS011;4639;48.862;9.188;2024-03-02T11:15:34;158.50;;;148.68;;
9208;SDS011;4639;48.862;9.188;2024-03-02T11:18:02;177.80;;;166.10;;
9208;SDS011;4639;48.862;9.188;2024-03-02T11:20:30;211.02;;;196.68;;
9208;SDS011;4639;48.862;9.188;2024-03-02T11:22:57;267.10;;;248.60;;
9208;SDS011;4639;48.862;9.188;2024-03-02T11:25:26;196.77;;;183.43;;
9208;SDS011;4639;48.862;9.188;2024-03-02T11:35:35;206.13;;;193.40;;
9208;SDS011;4639;48.862;9.188;2024-03-02T11:38:06;225.23;;;210.70;;
9208;SDS011;4639;48.862;9.188;2024-03-02T11:40:35;371.23;;;342.13;;
9208;SDS011;4639;48.862;9.188;2024-03-02T11:43:01;277.40;;;256.13;;
9208;SDS011;4639;48.862;9.188;2024-03-02T11:45:27;245.20;;;229.43;;
9208;SDS011;4639;48.862;9.188;2024-03-02T11:47:58;244.52;;;229.70;;
9208;SDS011;4639;48.862;9.188;2024-03-02T11:50:33;313.60;;;290.58;;
9208;SDS011;4639;48.862;9.188;2024-03-02T11:53:07;278.88;;;259.65;;
9208;SDS011;4639;48.862;9.188;2024-03-02T11:55:39;280.58;;;261.02;;
9208;SDS011;4639;48.862;9.188;2024-03-02T11:58:17;300.42;;;278.83;;
9208;SDS011;4639;48.862;9.188;2024-03-02T12:00:45;354.17;;;328.02;;
9208;SDS011;4639;48.862;9.188;2024-03-02T12:03:15;391.23;;;362.85;;
9208;SDS011;4639;48.862;9.188;2024-03-02T12:05:41;408.70;;;378.05;;
9208;SDS011;4639;48.862;9.188;2024-03-02T12:08:08;419.48;;;387.13;;
9208;SDS011;4639;48.862;9.188;2024-03-02T12:10:40;346.38;;;320.38;;
9208;SDS011;4639;48.862;9.188;2024-03-02T12:13:11;388.75;;;360.80;;
9208;SDS011;4639;48.862;9.188;2024-03-02T12:15:40;401.58;;;370.63;;
9208;SDS011;4639;48.862;9.188;2024-03-02T12:18:09;394.35;;;364.90;;
9208;SDS011;4639;48.862;9.188;2024-03-02T12:20:38;408.85;;;377.33;;
9208;SDS011;4639;48.862;9.188;2024-03-02T12:23:07;427.00;;;396.38;;
9208;SDS011;4639;48.862;9.188;2024-03-02T12:25:33;429.70;;;395.95;;
9208;SDS011;4639;48.862;9.188;2024-03-02T12:27:59;433.00;;;401.42;;
9208;SDS011;4639;48.862;9.188;2024-03-02T12:30:29;400.90;;;370.25;;
9208;SDS011;4639;48.862;9.188;2024-03-02T12:32:57;469.35;;;431.02;;
9208;SDS011;4639;48.862;9.188;2024-03-02T12:35:23;432.45;;;398.75;;
9208;SDS011;4639;48.862;9.188;2024-03-02T12:37:50;466.60;;;433.15;;
9208;SDS011;4639;48.862;9.188;2024-03-02T12:40:18;409.98;;;378.10;;
9208;SDS011;4639;48.862;9.188;2024-03-02T12:42:45;481.98;;;446.20;;
9208;SDS011;4639;48.862;9.188;2024-03-02T12:45:12;302.52;;;279.90;;
9208;SDS011;4639;48.862;9.188;2024-03-02T12:47:39;387.60;;;359.15;;
9208;SDS011;4639;48.862;9.188;2024-03-02T12:50:05;345.20;;;317.95;;
9208;SDS011;4639;48.862;9.188;2024-03-02T12:52:32;418.98;;;385.60;;
9208;SDS011;4639;48.862;9.188;2024-03-02T12:55:02;406.40;;;374.88;;
9208;SDS011;4639;48.862;9.188;2024-03-02T12:57:30;314.45;;;291.65;;
9208;SDS011;4639;48.862;9.188;2024-03-02T13:00:06;325.00;;;300.85;;
9208;SDS011;4639;48.862;9.188;2024-03-02T13:02:34;348.58;;;323.23;;
9208;SDS011;4639;48.862;9.188;2024-03-02T13:05:01;418.13;;;384.05;;
9208;SDS011;4639;48.862;9.188;2024-03-02T13:07:27;469.33;;;433.52;;
9208;SDS011;4639;48.862;9.188;2024-03-02T13:09:54;491.08;;;454.70;;
9208;SDS011;4639;48.862;9.188;2024-03-02T13:12:21;450.77;;;415.65;;
9208;SDS011;4639;48.862;9.188;2024-03-02T13:14:53;355.85;;;330.02;;
9208;SDS011;4639;48.862;9.188;2024-03-02T13:17:19;342.05;;;316.63;;
9208;SDS011;4639;48.862;9.188;2024-03-02T13:19:55;365.23;;;338.70;;
9208;SDS011;4639;48.862;9.188;2024-03-02T13:22:21;386.52;;;358.75;;
9208;SDS011;4639;48.862;9.188;2024-03-02T13:24:47;362.48;;;336.33;;
9208;SDS011;4639;48.862;9.188;2024-03-02T13:27:14;319.52;;;298.15;;
9208;SDS011;4639;48.862;9.188;2024-03-02T13:29:40;462.08;;;426.60;;
9208;SDS011;4639;48.862;9.188;2024-03-02T13:32:07;374.20;;;346.92;;
9208;SDS011;4639;48.862;9.188;2024-03-02T13:34:33;329.98;;;304.10;;
9208;SDS011;4639;48.862;9.188;2024-03-02T13:36:58;363.15;;;336.25;;
9208;SDS011;4639;48.862;9.188;2024-03-02T13:39:26;345.65;;;319.48;;
9208;SDS011;4639;48.862;9.188;2024-03-02T13:41:52;343.13;;;318.00;;
9208;SDS011;4639;48.862;9.188;2024-03-02T13:44:22;325.33;;;301.80;;
9208;SDS011;4639;48.862;9.188;2024-03-02T13:46:48;344.05;;;318.45;;
9208;SDS011;4639;48.862;9.188;2024-03-02T13:49:14;464.45;;;426.25;;
9208;SDS011;4639;48.862;9.188;2024-03-02T13:51:39;362.17;;;335.42;;
9208;SDS011;4639;48.862;9.188;2024-03-02T13:54:05;354.38;;;328.70;;
9208;SDS011;4639;48.862;9.188;2024-03-02T13:56:31;322.88;;;300.80;;
9208;SDS011;4639;48.862;9.188;2024-03-02T13:58:57;320.42;;;299.02;;
9208;SDS011;4639;48.862;9.188;2024-03-02T14:01:23;421.77;;;391.02;;
9208;SDS011;4639;48.862;9.188;2024-03-02T14:03:49;366.42;;;342.48;;
9208;SDS011;4639;48.862;9.188;2024-03-02T14:06:15;387.80;;;360.88;;
9208;SDS011;4639;48.862;9.188;2024-03-02T14:08:41;339.60;;;316.73;;
9208;SDS011;4639;48.862;9.188;2024-03-02T14:11:09;397.83;;;369.55;;
9208;SDS011;4639;48.862;9.188;2024-03-02T14:13:39;353.80;;;329.67;;
9208;SDS011;4639;48.862;9.188;2024-03-02T14:16:06;414.80;;;382.33;;
9208;SDS011;4639;48.862;9.188;2024-03-02T14:18:31;516.28;;;473.85;;
9208;SDS011;4639;48.862;9.188;2024-03-02T14:20:57;382.30;;;355.70;;
9208;SDS011;4639;48.862;9.188;2024-03-02T14:23:23;343.90;;;320.30;;
9208;SDS011;4639;48.862;9.188;2024-03-02T14:25:50;344.25;;;320.70;;
9208;SDS011;4639;48.862;9.188;2024-03-02T14:28:16;399.98;;;372.23;;
9208;SDS011;4639;48.862;9.188;2024-03-02T14:30:41;373.92;;;349.38;;
9208;SDS011;4639;48.862;9.188;2024-03-02T14:33:07;350.67;;;327.30;;